sensor_id;sensor_type;location;lat;lon;timestamp;temperature;humidity
22940;DHT22;11636;52.086;5.090;2023-04-01T00:00:27;9.80;99.90
22940;DHT22;11636;52.086;5.090;2023-04-01T00:02:56;9.80;99.90
22940;DHT22;11636;52.086;5.090;2023-04-01T00:05:23;9.80;99.90
22940;DHT22;11636;52.086;5.090;2023-04-01T00:08:06;9.80;99.90
22940;DHT22;11636;52.086;5.090;2023-04-01T00:10:40;9.70;99.90
22940;DHT22;11636;52.086;5.090;2023-04-01T00:13:07;9.80;99.90
22940;DHT22;11636;52.086;5.090;2023-04-01T00:15:42;9.70;99.90
22940;DHT22;11636;52.086;5.090;2023-04-01T00:18:15;9.70;99.90
22940;DHT22;11636;52.086;5.090;2023-04-01T00:20:46;9.70;99.90
22940;DHT22;11636;52.086;5.090;2023-04-01T00:23:15;9.70;99.90
22940;DHT22;11636;52.086;5.090;2023-04-01T00:25:49;9.70;99.90
22940;DHT22;11636;52.086;5.090;2023-04-01T00:28:23;9.70;99.90
22940;DHT22;11636;52.086;5.090;2023-04-01T00:30:49;9.70;99.90
22940;DHT22;11636;52.086;5.090;2023-04-01T00:33:17;9.60;99.90
22940;DHT22;11636;52.086;5.090;2023-04-01T00:35:51;9.60;99.90
22940;DHT22;11636;52.086;5.090;2023-04-01T00:38:24;9.60;99.90
22940;DHT22;11636;52.086;5.090;2023-04-01T00:40:57;9.60;99.90
22940;DHT22;11636;52.086;5.090;2023-04-01T00:43:32;9.60;99.90
22940;DHT22;11636;52.086;5.090;2023-04-01T00:45:59;9.60;99.90
22940;DHT22;11636;52.086;5.090;2023-04-01T00:48:39;9.50;99.90
22940;DHT22;11636;52.086;5.090;2023-04-01T00:51:11;9.50;99.90
22940;DHT22;11636;52.086;5.090;2023-04-01T00:53:49;9.50;99.90
22940;DHT22;11636;52.086;5.090;2023-04-01T00:56:30;9.40;99.90
22940;DHT22;11636;52.086;5.090;2023-04-01T00:59:08;9.40;99.90
22940;DHT22;11636;52.086;5.090;2023-04-01T01:01:44;9.40;99.90
22940;DHT22;11636;52.086;5.090;2023-04-01T01:04:22;9.30;99.90
22940;DHT22;11636;52.086;5.090;2023-04-01T01:07:21;9.30;99.90
22940;DHT22;11636;52.086;5.090;2023-04-01T01:10:09;9.20;99.90
22940;DHT22;11636;52.086;5.090;2023-04-01T01:12:55;9.20;99.90
22940;DHT22;11636;52.086;5.090;2023-04-01T01:15:44;9.20;99.90
22940;DHT22;11636;52.086;5.090;2023-04-01T01:18:53;9.20;99.90
22940;DHT22;11636;52.086;5.090;2023-04-01T01:27:07;9.20;99.90
22940;DHT22;11636;52.086;5.090;2023-04-01T01:29:49;9.20;99.90
22940;DHT22;11636;52.086;5.090;2023-04-01T01:32:36;9.10;99.90
22940;DHT22;11636;52.086;5.090;2023-04-01T01:35:22;9.10;99.90
22940;DHT22;11636;52.086;5.090;2023-04-01T01:38:00;9.20;99.90
22940;DHT22;11636;52.086;5.090;2023-04-01T01:40:37;9.10;99.90
22940;DHT22;11636;52.086;5.090;2023-04-01T01:43:15;9.10;99.90
22940;DHT22;11636;52.086;5.090;2023-04-01T01:45:48;9.10;99.90
22940;DHT22;11636;52.086;5.090;2023-04-01T01:48:24;9.10;99.90
22940;DHT22;11636;52.086;5.090;2023-04-01T01:50:53;9.10;99.90
22940;DHT22;11636;52.086;5.090;2023-04-01T01:53:20;9.10;99.90
22940;DHT22;11636;52.086;5.090;2023-04-01T01:55:54;9.10;99.90
22940;DHT22;11636;52.086;5.090;2023-04-01T02:01:02;9.10;99.90
22940;DHT22;11636;52.086;5.090;2023-04-01T02:03:39;9.00;99.90
22940;DHT22;11636;52.086;5.090;2023-04-01T02:06:16;9.00;99.90
22940;DHT22;11636;52.086;5.090;2023-04-01T02:08:47;9.10;99.90
22940;DHT22;11636;52.086;5.090;2023-04-01T02:11:36;9.00;99.90
22940;DHT22;11636;52.086;5.090;2023-04-01T02:14:59;9.00;99.90
22940;DHT22;11636;52.086;5.090;2023-04-01T02:17:20;9.00;99.90
22940;DHT22;11636;52.086;5.090;2023-04-01T02:20:15;9.00;99.90
22940;DHT22;11636;52.086;5.090;2023-04-01T02:22:50;9.00;99.90
22940;DHT22;11636;52.086;5.090;2023-04-01T02:25:32;9.00;99.90
22940;DHT22;11636;52.086;5.090;2023-04-01T02:28:08;9.00;99.90
22940;DHT22;11636;52.086;5.090;2023-04-01T02:30:37;9.00;99.90
22940;DHT22;11636;52.086;5.090;2023-04-01T02:33:11;9.00;99.90
22940;DHT22;11636;52.086;5.090;2023-04-01T02:35:45;8.90;99.90
22940;DHT22;11636;52.086;5.090;2023-04-01T02:38:18;9.00;99.90
22940;DHT22;11636;52.086;5.090;2023-04-01T02:40:58;8.90;99.90
22940;DHT22;11636;52.086;5.090;2023-04-01T02:43:32;8.90;99.90
22940;DHT22;11636;52.086;5.090;2023-04-01T02:45:59;9.00;99.90
22940;DHT22;11636;52.086;5.090;2023-04-01T02:48:33;8.90;99.90
22940;DHT22;11636;52.086;5.090;2023-04-01T02:51:00;8.90;99.90
22940;DHT22;11636;52.086;5.090;2023-04-01T02:53:34;8.90;99.90
22940;DHT22;11636;52.086;5.090;2023-04-01T02:56:07;8.90;99.90
22940;DHT22;11636;52.086;5.090;2023-04-01T02:58:36;9.00;99.90
22940;DHT22;11636;52.086;5.090;2023-04-01T03:01:10;8.90;99.90
22940;DHT22;11636;52.086;5.090;2023-04-01T03:03:37;8.90;99.90
22940;DHT22;11636;52.086;5.090;2023-04-01T03:06:12;8.90;99.90
22940;DHT22;11636;52.086;5.090;2023-04-01T03:08:40;9.00;99.90
22940;DHT22;11636;52.086;5.090;2023-04-01T03:11:13;9.00;99.90
22940;DHT22;11636;52.086;5.090;2023-04-01T03:13:40;9.00;99.90
22940;DHT22;11636;52.086;5.090;2023-04-01T03:16:13;9.00;99.90
22940;DHT22;11636;52.086;5.090;2023-04-01T03:18:40;9.00;99.90
22940;DHT22;11636;52.086;5.090;2023-04-01T03:21:22;9.00;99.90
22940;DHT22;11636;52.086;5.090;2023-04-01T03:23:49;9.00;99.90
22940;DHT22;11636;52.086;5.090;2023-04-01T03:26:23;9.00;99.90
22940;DHT22;11636;52.086;5.090;2023-04-01T03:28:50;9.00;99.90
22940;DHT22;11636;52.086;5.090;2023-04-01T03:31:23;9.10;99.90
22940;DHT22;11636;52.086;5.090;2023-04-01T03:33:50;9.10;99.90
22940;DHT22;11636;52.086;5.090;2023-04-01T03:36:17;9.10;99.90
22940;DHT22;11636;52.086;5.090;2023-04-01T03:38:51;9.10;99.90
22940;DHT22;11636;52.086;5.090;2023-04-01T03:41:18;9.10;99.90
22940;DHT22;11636;52.086;5.090;2023-04-01T03:43:53;9.10;99.90
22940;DHT22;11636;52.086;5.090;2023-04-01T03:46:34;9.10;99.90
22940;DHT22;11636;52.086;5.090;2023-04-01T03:49:10;9.20;99.90
22940;DHT22;11636;52.086;5.090;2023-04-01T03:51:39;9.20;99.90
22940;DHT22;11636;52.086;5.090;2023-04-01T03:54:13;9.20;99.90
22940;DHT22;11636;52.086;5.090;2023-04-01T03:56:47;9.30;99.90
22940;DHT22;11636;52.086;5.090;2023-04-01T03:59:20;9.30;99.90
22940;DHT22;11636;52.086;5.090;2023-04-01T04:01:54;9.30;99.90
22940;DHT22;11636;52.086;5.090;2023-04-01T04:04:27;9.40;99.90
22940;DHT22;11636;52.086;5.090;2023-04-01T04:06:58;9.40;99.90
22940;DHT22;11636;52.086;5.090;2023-04-01T04:09:25;9.40;99.90
22940;DHT22;11636;52.086;5.090;2023-04-01T04:12:06;9.40;99.90
22940;DHT22;11636;52.086;5.090;2023-04-01T04:14:32;9.40;99.90
22940;DHT22;11636;52.086;5.090;2023-04-01T04:17:11;9.40;99.90
22940;DHT22;11636;52.086;5.090;2023-04-01T04:19:43;9.40;99.90
22940;DHT22;11636;52.086;5.090;2023-04-01T04:22:16;9.40;99.90
22940;DHT22;11636;52.086;5.090;2023-04-01T04:24:49;9.40;99.90
22940;DHT22;11636;52.086;5.090;2023-04-01T04:27:26;9.40;99.90
22940;DHT22;11636;52.086;5.090;2023-04-01T04:29:53;9.50;99.90
22940;DHT22;11636;52.086;5.090;2023-04-01T04:32:34;9.50;99.90
22940;DHT22;11636;52.086;5.090;2023-04-01T04:35:01;9.50;99.90
22940;DHT22;11636;52.086;5.090;2023-04-01T04:37:34;9.40;99.90
22940;DHT22;11636;52.086;5.090;2023-04-01T04:40:01;9.50;99.90
22940;DHT22;11636;52.086;5.090;2023-04-01T04:42:38;9.50;99.90
22940;DHT22;11636;52.086;5.090;2023-04-01T04:45:05;9.50;99.90
22940;DHT22;11636;52.086;5.090;2023-04-01T04:47:46;9.40;99.90
22940;DHT22;11636;52.086;5.090;2023-04-01T04:50:13;9.40;99.90
22940;DHT22;11636;52.086;5.090;2023-04-01T04:52:47;9.40;99.90
22940;DHT22;11636;52.086;5.090;2023-04-01T04:55:14;9.40;99.90
22940;DHT22;11636;52.086;5.090;2023-04-01T04:57:48;9.40;99.90
22940;DHT22;11636;52.086;5.090;2023-04-01T05:00:15;9.50;99.90
22940;DHT22;11636;52.086;5.090;2023-04-01T05:02:52;9.50;99.90
22940;DHT22;11636;52.086;5.090;2023-04-01T05:05:31;9.50;99.90
22940;DHT22;11636;52.086;5.090;2023-04-01T05:07:59;9.50;99.90
22940;DHT22;11636;52.086;5.090;2023-04-01T05:10:32;9.50;99.90
22940;DHT22;11636;52.086;5.090;2023-04-01T05:12:59;9.50;99.90
22940;DHT22;11636;52.086;5.090;2023-04-01T05:15:32;9.50;99.90
22940;DHT22;11636;52.086;5.090;2023-04-01T05:18:06;9.50;99.90
22940;DHT22;11636;52.086;5.090;2023-04-01T05:20:33;9.50;99.90
22940;DHT22;11636;52.086;5.090;2023-04-01T05:23:06;9.50;99.90
22940;DHT22;11636;52.086;5.090;2023-04-01T05:25:39;9.50;99.90
22940;DHT22;11636;52.086;5.090;2023-04-01T05:28:06;9.50;99.90
22940;DHT22;11636;52.086;5.090;2023-04-01T05:30:40;9.50;99.90
22940;DHT22;11636;52.086;5.090;2023-04-01T05:33:14;9.50;99.90
22940;DHT22;11636;52.086;5.090;2023-04-01T05:35:48;9.50;99.90
22940;DHT22;11636;52.086;5.090;2023-04-01T05:38:21;9.50;99.90
22940;DHT22;11636;52.086;5.090;2023-04-01T05:40:59;9.50;99.90
22940;DHT22;11636;52.086;5.090;2023-04-01T05:43:38;9.50;99.90
22940;DHT22;11636;52.086;5.090;2023-04-01T05:46:20;9.50;99.90
22940;DHT22;11636;52.086;5.090;2023-04-01T05:48:48;9.50;99.90
22940;DHT22;11636;52.086;5.090;2023-04-01T05:51:21;9.50;99.90
22940;DHT22;11636;52.086;5.090;2023-04-01T05:53:48;9.40;99.90
22940;DHT22;11636;52.086;5.090;2023-04-01T05:56:21;9.40;99.90
22940;DHT22;11636;52.086;5.090;2023-04-01T05:58:52;9.50;99.90
22940;DHT22;11636;52.086;5.090;2023-04-01T06:01:26;9.50;99.90
22940;DHT22;11636;52.086;5.090;2023-04-01T06:04:00;9.40;99.90
22940;DHT22;11636;52.086;5.090;2023-04-01T06:06:34;9.40;99.90
22940;DHT22;11636;52.086;5.090;2023-04-01T06:09:17;9.40;99.90
22940;DHT22;11636;52.086;5.090;2023-04-01T06:15:13;9.50;99.90
22940;DHT22;11636;52.086;5.090;2023-04-01T06:26:43;9.50;99.90
22940;DHT22;11636;52.086;5.090;2023-04-01T06:29:40;9.50;99.90
22940;DHT22;11636;52.086;5.090;2023-04-01T06:53:39;9.40;99.90
22940;DHT22;11636;52.086;5.090;2023-04-01T06:56:16;9.40;99.90
22940;DHT22;11636;52.086;5.090;2023-04-01T06:58:55;9.40;99.90
22940;DHT22;11636;52.086;5.090;2023-04-01T07:01:28;9.40;99.90
22940;DHT22;11636;52.086;5.090;2023-04-01T07:04:09;9.40;99.90
22940;DHT22;11636;52.086;5.090;2023-04-01T07:06:54;9.40;99.90
22940;DHT22;11636;52.086;5.090;2023-04-01T07:09:40;9.40;99.90
22940;DHT22;11636;52.086;5.090;2023-04-01T07:14:58;9.40;99.90
22940;DHT22;11636;52.086;5.090;2023-04-01T07:17:36;9.40;99.90
22940;DHT22;11636;52.086;5.090;2023-04-01T07:20:48;9.40;99.90
22940;DHT22;11636;52.086;5.090;2023-04-01T07:23:21;9.50;99.90
22940;DHT22;11636;52.086;5.090;2023-04-01T07:25:56;9.50;99.90
22940;DHT22;11636;52.086;5.090;2023-04-01T07:28:37;9.50;99.90
22940;DHT22;11636;52.086;5.090;2023-04-01T07:31:40;9.50;99.90
22940;DHT22;11636;52.086;5.090;2023-04-01T07:34:26;9.50;99.90
22940;DHT22;11636;52.086;5.090;2023-04-01T07:37:39;9.50;99.90
22940;DHT22;11636;52.086;5.090;2023-04-01T07:40:27;9.50;99.90
22940;DHT22;11636;52.086;5.090;2023-04-01T07:43:53;9.50;99.90
22940;DHT22;11636;52.086;5.090;2023-04-01T07:52:18;9.60;99.90
22940;DHT22;11636;52.086;5.090;2023-04-01T07:57:37;9.60;99.90
22940;DHT22;11636;52.086;5.090;2023-04-01T08:00:21;9.60;99.90
22940;DHT22;11636;52.086;5.090;2023-04-01T08:16:47;9.50;99.90
22940;DHT22;11636;52.086;5.090;2023-04-01T08:21:57;9.60;99.90
22940;DHT22;11636;52.086;5.090;2023-04-01T08:24:45;9.60;99.90
22940;DHT22;11636;52.086;5.090;2023-04-01T08:30:26;9.60;99.90
22940;DHT22;11636;52.086;5.090;2023-04-01T08:32:59;9.70;99.90
22940;DHT22;11636;52.086;5.090;2023-04-01T08:35:57;9.70;99.90
22940;DHT22;11636;52.086;5.090;2023-04-01T08:38:32;9.70;99.90
22940;DHT22;11636;52.086;5.090;2023-04-01T08:41:37;9.70;99.90
22940;DHT22;11636;52.086;5.090;2023-04-01T08:44:34;9.80;99.90
22940;DHT22;11636;52.086;5.090;2023-04-01T08:50:23;9.80;99.90
22940;DHT22;11636;52.086;5.090;2023-04-01T09:20:20;10.30;99.90
22940;DHT22;11636;52.086;5.090;2023-04-01T09:23:14;10.30;99.90
22940;DHT22;11636;52.086;5.090;2023-04-01T09:29:20;10.60;99.90
22940;DHT22;11636;52.086;5.090;2023-04-01T09:35:48;10.50;99.90
22940;DHT22;11636;52.086;5.090;2023-04-01T09:37:53;10.50;99.90
22940;DHT22;11636;52.086;5.090;2023-04-01T09:49:04;10.50;99.90
22940;DHT22;11636;52.086;5.090;2023-04-01T09:52:01;10.50;99.90
22940;DHT22;11636;52.086;5.090;2023-04-01T09:55:06;10.60;99.90
22940;DHT22;11636;52.086;5.090;2023-04-01T10:06:41;10.70;99.90
22940;DHT22;11636;52.086;5.090;2023-04-01T10:18:03;10.80;99.90
22940;DHT22;11636;52.086;5.090;2023-04-01T10:26:36;11.20;99.90
22940;DHT22;11636;52.086;5.090;2023-04-01T10:29:26;11.30;99.90
22940;DHT22;11636;52.086;5.090;2023-04-01T10:40:57;11.30;99.90
22940;DHT22;11636;52.086;5.090;2023-04-01T10:44:06;11.30;99.90
22940;DHT22;11636;52.086;5.090;2023-04-01T11:05:15;10.80;99.90
22940;DHT22;11636;52.086;5.090;2023-04-01T11:10:54;11.10;99.90
22940;DHT22;11636;52.086;5.090;2023-04-01T11:22:29;11.90;99.90
22940;DHT22;11636;52.086;5.090;2023-04-01T11:33:49;12.10;99.90
22940;DHT22;11636;52.086;5.090;2023-04-01T11:42:30;11.80;99.90
22940;DHT22;11636;52.086;5.090;2023-04-01T11:51:02;11.60;99.90
22940;DHT22;11636;52.086;5.090;2023-04-01T11:54:01;11.50;99.90
22940;DHT22;11636;52.086;5.090;2023-04-01T12:08:13;11.30;99.90
22940;DHT22;11636;52.086;5.090;2023-04-01T12:20:12;11.40;99.90
22940;DHT22;11636;52.086;5.090;2023-04-01T12:46:16;11.30;99.90
22940;DHT22;11636;52.086;5.090;2023-04-01T13:08:10;11.80;99.90
22940;DHT22;11636;52.086;5.090;2023-04-01T13:17:23;11.90;99.90
22940;DHT22;11636;52.086;5.090;2023-04-01T13:26:03;12.40;99.90
22940;DHT22;11636;52.086;5.090;2023-04-01T13:28:52;12.80;99.90
22940;DHT22;11636;52.086;5.090;2023-04-01T13:42:29;12.70;99.90
22940;DHT22;11636;52.086;5.090;2023-04-01T13:45:20;12.40;99.90
22940;DHT22;11636;52.086;5.090;2023-04-01T13:54:00;11.60;99.90
22940;DHT22;11636;52.086;5.090;2023-04-01T14:02:49;11.20;99.90
22940;DHT22;11636;52.086;5.090;2023-04-01T14:17:08;10.80;99.90
22940;DHT22;11636;52.086;5.090;2023-04-01T14:34:56;10.60;99.90
22940;DHT22;11636;52.086;5.090;2023-04-01T14:37:52;10.70;99.90
22940;DHT22;11636;52.086;5.090;2023-04-01T14:43:38;10.70;99.90
22940;DHT22;11636;52.086;5.090;2023-04-01T14:51:46;10.80;99.90
22940;DHT22;11636;52.086;5.090;2023-04-01T14:54:31;10.80;99.90
22940;DHT22;11636;52.086;5.090;2023-04-01T14:57:14;10.80;99.90
22940;DHT22;11636;52.086;5.090;2023-04-01T14:59:51;10.80;99.90
22940;DHT22;11636;52.086;5.090;2023-04-01T15:08:37;10.70;99.90
22940;DHT22;11636;52.086;5.090;2023-04-01T15:11:31;10.70;99.90
22940;DHT22;11636;52.086;5.090;2023-04-01T15:14:22;10.70;99.90
22940;DHT22;11636;52.086;5.090;2023-04-01T15:17:24;10.60;99.90
22940;DHT22;11636;52.086;5.090;2023-04-01T15:20:34;10.60;99.90
22940;DHT22;11636;52.086;5.090;2023-04-01T15:31:59;10.70;99.90
22940;DHT22;11636;52.086;5.090;2023-04-01T15:40:42;10.60;99.90
22940;DHT22;11636;52.086;5.090;2023-04-01T15:43:36;10.50;99.90
22940;DHT22;11636;52.086;5.090;2023-04-01T15:46:44;10.50;99.90
22940;DHT22;11636;52.086;5.090;2023-04-01T16:04:26;10.30;99.90
22940;DHT22;11636;52.086;5.090;2023-04-01T16:15:34;10.20;99.90
22940;DHT22;11636;52.086;5.090;2023-04-01T16:21:14;10.20;99.90
22940;DHT22;11636;52.086;5.090;2023-04-01T16:38:01;10.20;99.90
22940;DHT22;11636;52.086;5.090;2023-04-01T16:43:54;10.20;99.90
22940;DHT22;11636;52.086;5.090;2023-04-01T16:49:17;10.20;99.90
22940;DHT22;11636;52.086;5.090;2023-04-01T16:52:04;10.20;99.90
22940;DHT22;11636;52.086;5.090;2023-04-01T16:57:45;10.10;99.90
22940;DHT22;11636;52.086;5.090;2023-04-01T17:00:27;10.00;99.90
22940;DHT22;11636;52.086;5.090;2023-04-01T17:08:26;10.00;99.90
22940;DHT22;11636;52.086;5.090;2023-04-01T17:11:19;9.90;99.90
22940;DHT22;11636;52.086;5.090;2023-04-01T17:16:49;9.90;99.90
22940;DHT22;11636;52.086;5.090;2023-04-01T17:27:59;9.80;99.90
22940;DHT22;11636;52.086;5.090;2023-04-01T17:30:28;9.70;99.90
22940;DHT22;11636;52.086;5.090;2023-04-01T17:36:21;9.70;99.90
22940;DHT22;11636;52.086;5.090;2023-04-01T17:42:35;9.60;99.90
22940;DHT22;11636;52.086;5.090;2023-04-01T17:45:19;9.50;99.90
22940;DHT22;11636;52.086;5.090;2023-04-01T17:54:26;9.30;99.90
22940;DHT22;11636;52.086;5.090;2023-04-01T18:00:37;9.30;99.90
22940;DHT22;11636;52.086;5.090;2023-04-01T18:06:29;9.20;99.90
22940;DHT22;11636;52.086;5.090;2023-04-01T18:12:34;9.20;99.90
22940;DHT22;11636;52.086;5.090;2023-04-01T18:21:18;9.20;99.90
22940;DHT22;11636;52.086;5.090;2023-04-01T18:23:58;9.20;99.90
22940;DHT22;11636;52.086;5.090;2023-04-01T18:26:34;9.20;99.90
22940;DHT22;11636;52.086;5.090;2023-04-01T18:29:30;9.20;99.90
22940;DHT22;11636;52.086;5.090;2023-04-01T18:35:14;9.10;99.90
22940;DHT22;11636;52.086;5.090;2023-04-01T18:52:43;9.10;99.90
22940;DHT22;11636;52.086;5.090;2023-04-01T18:55:21;9.10;99.90
22940;DHT22;11636;52.086;5.090;2023-04-01T18:58:11;9.10;99.90
22940;DHT22;11636;52.086;5.090;2023-04-01T19:04:05;9.00;99.90
22940;DHT22;11636;52.086;5.090;2023-04-01T19:09:22;9.00;99.90
22940;DHT22;11636;52.086;5.090;2023-04-01T19:21:56;8.90;99.90
22940;DHT22;11636;52.086;5.090;2023-04-01T19:27:10;8.90;99.90
22940;DHT22;11636;52.086;5.090;2023-04-01T19:30:36;8.90;99.90
22940;DHT22;11636;52.086;5.090;2023-04-01T19:33:25;8.90;99.90
22940;DHT22;11636;52.086;5.090;2023-04-01T19:45:43;8.80;99.90
22940;DHT22;11636;52.086;5.090;2023-04-01T19:55:31;8.70;99.90
22940;DHT22;11636;52.086;5.090;2023-04-01T19:58:26;8.70;99.90
22940;DHT22;11636;52.086;5.090;2023-04-01T20:01:04;8.70;99.90
22940;DHT22;11636;52.086;5.090;2023-04-01T20:12:06;8.60;99.90
22940;DHT22;11636;52.086;5.090;2023-04-01T20:14:51;8.60;99.90
22940;DHT22;11636;52.086;5.090;2023-04-01T20:17:44;8.50;99.90
22940;DHT22;11636;52.086;5.090;2023-04-01T20:20:22;8.50;99.90
22940;DHT22;11636;52.086;5.090;2023-04-01T20:25:52;8.40;99.90
22940;DHT22;11636;52.086;5.090;2023-04-01T20:28:28;8.40;99.90
22940;DHT22;11636;52.086;5.090;2023-04-01T20:31:41;8.40;99.90
22940;DHT22;11636;52.086;5.090;2023-04-01T20:40:38;8.30;99.90
22940;DHT22;11636;52.086;5.090;2023-04-01T20:43:33;8.30;99.90
22940;DHT22;11636;52.086;5.090;2023-04-01T20:46:20;8.30;99.90
22940;DHT22;11636;52.086;5.090;2023-04-01T21:03:38;8.20;99.90
22940;DHT22;11636;52.086;5.090;2023-04-01T21:30:14;8.00;99.90
22940;DHT22;11636;52.086;5.090;2023-04-01T21:32:47;8.00;99.90
22940;DHT22;11636;52.086;5.090;2023-04-01T21:41:27;8.00;99.90
22940;DHT22;11636;52.086;5.090;2023-04-01T21:47:20;7.90;99.90
22940;DHT22;11636;52.086;5.090;2023-04-01T21:53:12;7.90;99.90
22940;DHT22;11636;52.086;5.090;2023-04-01T22:04:27;7.80;99.90
22940;DHT22;11636;52.086;5.090;2023-04-01T22:07:16;7.80;99.90
22940;DHT22;11636;52.086;5.090;2023-04-01T22:10:05;7.80;99.90
22940;DHT22;11636;52.086;5.090;2023-04-01T22:13:10;7.80;99.90
22940;DHT22;11636;52.086;5.090;2023-04-01T22:19:20;7.70;99.90
22940;DHT22;11636;52.086;5.090;2023-04-01T22:22:01;7.70;99.90
22940;DHT22;11636;52.086;5.090;2023-04-01T22:27:55;7.70;99.90
22940;DHT22;11636;52.086;5.090;2023-04-01T22:30:39;7.60;99.90
22940;DHT22;11636;52.086;5.090;2023-04-01T22:33:27;7.60;99.90
22940;DHT22;11636;52.086;5.090;2023-04-01T22:39:23;7.60;99.90
22940;DHT22;11636;52.086;5.090;2023-04-01T22:42:25;7.60;99.90
22940;DHT22;11636;52.086;5.090;2023-04-01T22:48:01;7.50;99.90
22940;DHT22;11636;52.086;5.090;2023-04-01T22:56:20;7.40;99.90
22940;DHT22;11636;52.086;5.090;2023-04-01T23:01:39;7.50;99.90
22940;DHT22;11636;52.086;5.090;2023-04-01T23:04:23;7.40;99.90
22940;DHT22;11636;52.086;5.090;2023-04-01T23:06:57;7.40;99.90
22940;DHT22;11636;52.086;5.090;2023-04-01T23:09:37;7.40;99.90
22940;DHT22;11636;52.086;5.090;2023-04-01T23:12:13;7.40;99.90
22940;DHT22;11636;52.086;5.090;2023-04-01T23:17:30;7.30;99.90
22940;DHT22;11636;52.086;5.090;2023-04-01T23:30:49;7.20;99.90
22940;DHT22;11636;52.086;5.090;2023-04-01T23:33:19;7.30;99.90
22940;DHT22;11636;52.086;5.090;2023-04-01T23:36:00;7.20;99.90
22940;DHT22;11636;52.086;5.090;2023-04-01T23:38:52;7.20;99.90
22940;DHT22;11636;52.086;5.090;2023-04-01T23:41:27;7.20;99.90
22940;DHT22;11636;52.086;5.090;2023-04-01T23:44:03;7.20;99.90
22940;DHT22;11636;52.086;5.090;2023-04-01T23:46:40;7.30;99.90
22940;DHT22;11636;52.086;5.090;2023-04-01T23:49:38;7.30;99.90
22940;DHT22;11636;52.086;5.090;2023-04-01T23:52:42;7.30;99.90
22940;DHT22;11636;52.086;5.090;2023-04-01T23:55:29;7.30;99.90
22940;DHT22;11636;52.086;5.090;2023-04-01T23:58:18;7.30;99.90
